sensor_id;sensor_type;location;lat;lon;timestamp;temperature;humidity
70154;DHT22;57519;51.494;-2.626;2023-02-28T00:00:48;1.11;88.42
70154;DHT22;57519;51.494;-2.626;2023-02-28T00:03:13;1.05;88.42
70154;DHT22;57519;51.494;-2.626;2023-02-28T00:05:39;1.01;88.50
70154;DHT22;57519;51.494;-2.626;2023-02-28T00:08:04;0.97;88.52
70154;DHT22;57519;51.494;-2.626;2023-02-28T00:10:31;0.94;88.53
70154;DHT22;57519;51.494;-2.626;2023-02-28T00:13:02;0.93;89.00
70154;DHT22;57519;51.494;-2.626;2023-02-28T00:15:28;0.94;88.93
70154;DHT22;57519;51.494;-2.626;2023-02-28T00:17:54;0.94;88.89
70154;DHT22;57519;51.494;-2.626;2023-02-28T00:20:19;0.85;88.77
70154;DHT22;57519;51.494;-2.626;2023-02-28T00:22:48;0.85;89.01
70154;DHT22;57519;51.494;-2.626;2023-02-28T00:25:16;0.97;89.25
70154;DHT22;57519;51.494;-2.626;2023-02-28T00:27:42;1.02;89.46
70154;DHT22;57519;51.494;-2.626;2023-02-28T00:30:10;1.07;89.19
70154;DHT22;57519;51.494;-2.626;2023-02-28T00:32:36;1.09;89.22
70154;DHT22;57519;51.494;-2.626;2023-02-28T00:35:02;1.14;89.04
70154;DHT22;57519;51.494;-2.626;2023-02-28T00:37:28;1.17;88.87
70154;DHT22;57519;51.494;-2.626;2023-02-28T00:39:54;1.22;88.62
70154;DHT22;57519;51.494;-2.626;2023-02-28T00:42:19;1.18;88.55
70154;DHT22;57519;51.494;-2.626;2023-02-28T00:44:44;1.15;88.52
70154;DHT22;57519;51.494;-2.626;2023-02-28T00:47:10;1.17;88.65
70154;DHT22;57519;51.494;-2.626;2023-02-28T00:49:35;1.12;88.75
70154;DHT22;57519;51.494;-2.626;2023-02-28T00:52:01;1.11;88.52
70154;DHT22;57519;51.494;-2.626;2023-02-28T00:54:26;1.01;88.55
70154;DHT22;57519;51.494;-2.626;2023-02-28T00:56:52;1.00;88.54
70154;DHT22;57519;51.494;-2.626;2023-02-28T00:59:17;0.94;88.43
70154;DHT22;57519;51.494;-2.626;2023-02-28T01:01:44;0.91;88.58
70154;DHT22;57519;51.494;-2.626;2023-02-28T01:04:11;0.88;88.61
70154;DHT22;57519;51.494;-2.626;2023-02-28T01:06:36;0.93;89.05
70154;DHT22;57519;51.494;-2.626;2023-02-28T01:09:03;0.93;89.05
70154;DHT22;57519;51.494;-2.626;2023-02-28T01:11:29;0.95;89.01
70154;DHT22;57519;51.494;-2.626;2023-02-28T01:13:55;1.01;89.04
70154;DHT22;57519;51.494;-2.626;2023-02-28T01:16:20;1.02;89.15
70154;DHT22;57519;51.494;-2.626;2023-02-28T01:18:46;0.98;89.07
70154;DHT22;57519;51.494;-2.626;2023-02-28T01:21:14;0.97;89.21
70154;DHT22;57519;51.494;-2.626;2023-02-28T01:23:40;1.00;89.04
70154;DHT22;57519;51.494;-2.626;2023-02-28T01:26:07;0.97;89.25
70154;DHT22;57519;51.494;-2.626;2023-02-28T01:28:33;1.05;89.60
70154;DHT22;57519;51.494;-2.626;2023-02-28T01:30:59;1.09;89.54
70154;DHT22;57519;51.494;-2.626;2023-02-28T01:33:25;1.12;89.56
70154;DHT22;57519;51.494;-2.626;2023-02-28T01:35:58;1.20;89.85
70154;DHT22;57519;51.494;-2.626;2023-02-28T01:38:23;1.07;89.41
70154;DHT22;57519;51.494;-2.626;2023-02-28T01:40:49;1.07;89.48
70154;DHT22;57519;51.494;-2.626;2023-02-28T01:43:31;1.02;89.07
70154;DHT22;57519;51.494;-2.626;2023-02-28T01:45:58;1.00;89.03
70154;DHT22;57519;51.494;-2.626;2023-02-28T01:48:32;0.79;89.06
70154;DHT22;57519;51.494;-2.626;2023-02-28T01:51:02;0.73;89.26
70154;DHT22;57519;51.494;-2.626;2023-02-28T01:53:36;0.67;89.21
70154;DHT22;57519;51.494;-2.626;2023-02-28T01:56:05;0.54;89.27
70154;DHT22;57519;51.494;-2.626;2023-02-28T01:58:32;0.54;89.61
70154;DHT22;57519;51.494;-2.626;2023-02-28T02:00:57;0.53;89.72
70154;DHT22;57519;51.494;-2.626;2023-02-28T02:03:23;0.52;89.73
70154;DHT22;57519;51.494;-2.626;2023-02-28T02:05:48;0.53;90.01
70154;DHT22;57519;51.494;-2.626;2023-02-28T02:08:21;0.67;90.16
70154;DHT22;57519;51.494;-2.626;2023-02-28T02:10:55;0.80;89.99
70154;DHT22;57519;51.494;-2.626;2023-02-28T02:13:37;0.87;89.77
70154;DHT22;57519;51.494;-2.626;2023-02-28T02:18:53;1.02;89.66
70154;DHT22;57519;51.494;-2.626;2023-02-28T02:24:09;0.98;89.33
70154;DHT22;57519;51.494;-2.626;2023-02-28T02:40:02;0.83;89.56
70154;DHT22;57519;51.494;-2.626;2023-02-28T02:42:42;0.69;89.97
70154;DHT22;57519;51.494;-2.626;2023-02-28T02:48:13;0.69;90.15
70154;DHT22;57519;51.494;-2.626;2023-02-28T02:50:48;0.70;90.07
70154;DHT22;57519;51.494;-2.626;2023-02-28T02:53:15;0.64;89.88
70154;DHT22;57519;51.494;-2.626;2023-02-28T02:55:44;0.74;90.06
70154;DHT22;57519;51.494;-2.626;2023-02-28T02:58:16;0.80;90.05
70154;DHT22;57519;51.494;-2.626;2023-02-28T03:00:47;0.90;89.96
70154;DHT22;57519;51.494;-2.626;2023-02-28T03:03:15;0.97;89.77
70154;DHT22;57519;51.494;-2.626;2023-02-28T03:05:47;0.95;89.57
70154;DHT22;57519;51.494;-2.626;2023-02-28T03:08:13;0.95;89.65
70154;DHT22;57519;51.494;-2.626;2023-02-28T03:10:44;1.08;89.74
70154;DHT22;57519;51.494;-2.626;2023-02-28T03:15:58;1.21;89.88
70154;DHT22;57519;51.494;-2.626;2023-02-28T03:18:57;1.29;89.67
70154;DHT22;57519;51.494;-2.626;2023-02-28T03:24:41;1.42;89.38
70154;DHT22;57519;51.494;-2.626;2023-02-28T03:27:30;1.42;89.43
70154;DHT22;57519;51.494;-2.626;2023-02-28T03:30:06;1.46;89.53
70154;DHT22;57519;51.494;-2.626;2023-02-28T03:33:03;1.52;89.62
70154;DHT22;57519;51.494;-2.626;2023-02-28T03:35:35;1.63;89.58
70154;DHT22;57519;51.494;-2.626;2023-02-28T03:38:10;1.69;89.37
70154;DHT22;57519;51.494;-2.626;2023-02-28T03:40:42;1.66;89.28
70154;DHT22;57519;51.494;-2.626;2023-02-28T03:43:13;1.71;89.25
70154;DHT22;57519;51.494;-2.626;2023-02-28T03:45:41;1.76;89.21
70154;DHT22;57519;51.494;-2.626;2023-02-28T03:48:11;1.77;89.25
70154;DHT22;57519;51.494;-2.626;2023-02-28T03:50:41;1.93;89.67
70154;DHT22;57519;51.494;-2.626;2023-02-28T03:53:11;2.27;90.26
70154;DHT22;57519;51.494;-2.626;2023-02-28T03:55:45;2.50;90.49
70154;DHT22;57519;51.494;-2.626;2023-02-28T03:58:25;2.83;90.60
70154;DHT22;57519;51.494;-2.626;2023-02-28T04:01:00;2.96;89.91
70154;DHT22;57519;51.494;-2.626;2023-02-28T04:03:36;3.05;89.96
70154;DHT22;57519;51.494;-2.626;2023-02-28T04:06:02;3.07;89.76
70154;DHT22;57519;51.494;-2.626;2023-02-28T04:08:29;3.27;89.95
70154;DHT22;57519;51.494;-2.626;2023-02-28T04:11:00;3.32;89.68
70154;DHT22;57519;51.494;-2.626;2023-02-28T04:13:26;3.35;89.69
70154;DHT22;57519;51.494;-2.626;2023-02-28T04:15:52;3.51;89.83
70154;DHT22;57519;51.494;-2.626;2023-02-28T04:18:17;3.58;89.66
70154;DHT22;57519;51.494;-2.626;2023-02-28T04:20:42;3.62;89.58
70154;DHT22;57519;51.494;-2.626;2023-02-28T04:23:08;3.63;89.40
70154;DHT22;57519;51.494;-2.626;2023-02-28T04:25:33;3.62;89.44
70154;DHT22;57519;51.494;-2.626;2023-02-28T04:27:59;3.66;89.37
70154;DHT22;57519;51.494;-2.626;2023-02-28T04:30:24;3.72;89.32
70154;DHT22;57519;51.494;-2.626;2023-02-28T04:32:49;3.68;89.25
70154;DHT22;57519;51.494;-2.626;2023-02-28T04:35:15;3.72;89.29
70154;DHT22;57519;51.494;-2.626;2023-02-28T04:37:41;3.73;89.24
70154;DHT22;57519;51.494;-2.626;2023-02-28T04:40:06;3.75;89.18
70154;DHT22;57519;51.494;-2.626;2023-02-28T04:42:32;3.76;89.15
70154;DHT22;57519;51.494;-2.626;2023-02-28T04:45:02;3.70;89.15
70154;DHT22;57519;51.494;-2.626;2023-02-28T04:47:28;3.70;89.30
70154;DHT22;57519;51.494;-2.626;2023-02-28T04:49:53;3.70;89.34
70154;DHT22;57519;51.494;-2.626;2023-02-28T04:52:18;3.78;88.68
70154;DHT22;57519;51.494;-2.626;2023-02-28T04:54:44;3.80;88.13
70154;DHT22;57519;51.494;-2.626;2023-02-28T04:57:10;3.82;87.89
70154;DHT22;57519;51.494;-2.626;2023-02-28T04:59:35;3.87;87.58
70154;DHT22;57519;51.494;-2.626;2023-02-28T05:02:00;3.86;87.76
70154;DHT22;57519;51.494;-2.626;2023-02-28T05:04:32;3.87;87.88
70154;DHT22;57519;51.494;-2.626;2023-02-28T05:06:59;3.85;88.00
70154;DHT22;57519;51.494;-2.626;2023-02-28T05:09:25;3.82;88.17
70154;DHT22;57519;51.494;-2.626;2023-02-28T05:11:50;3.80;88.28
70154;DHT22;57519;51.494;-2.626;2023-02-28T05:14:15;3.80;88.43
70154;DHT22;57519;51.494;-2.626;2023-02-28T05:16:41;3.80;88.63
70154;DHT22;57519;51.494;-2.626;2023-02-28T05:19:06;3.85;88.17
70154;DHT22;57519;51.494;-2.626;2023-02-28T05:21:40;3.90;88.15
70154;DHT22;57519;51.494;-2.626;2023-02-28T05:24:10;3.90;88.16
70154;DHT22;57519;51.494;-2.626;2023-02-28T05:26:41;3.89;88.22
70154;DHT22;57519;51.494;-2.626;2023-02-28T05:29:07;3.87;88.07
70154;DHT22;57519;51.494;-2.626;2023-02-28T05:31:33;3.90;88.06
70154;DHT22;57519;51.494;-2.626;2023-02-28T05:33:58;3.90;88.19
70154;DHT22;57519;51.494;-2.626;2023-02-28T05:36:23;3.85;88.33
70154;DHT22;57519;51.494;-2.626;2023-02-28T05:38:50;3.78;88.62
70154;DHT22;57519;51.494;-2.626;2023-02-28T05:41:16;3.72;89.13
70154;DHT22;57519;51.494;-2.626;2023-02-28T05:43:42;3.76;89.27
70154;DHT22;57519;51.494;-2.626;2023-02-28T05:46:10;3.75;89.25
70154;DHT22;57519;51.494;-2.626;2023-02-28T05:48:37;3.76;89.26
70154;DHT22;57519;51.494;-2.626;2023-02-28T05:51:03;3.75;89.33
70154;DHT22;57519;51.494;-2.626;2023-02-28T05:53:30;3.79;89.29
70154;DHT22;57519;51.494;-2.626;2023-02-28T05:55:55;3.79;89.33
70154;DHT22;57519;51.494;-2.626;2023-02-28T05:58:21;3.78;89.32
70154;DHT22;57519;51.494;-2.626;2023-02-28T06:00:47;3.76;89.31
70154;DHT22;57519;51.494;-2.626;2023-02-28T06:03:12;3.70;89.44
70154;DHT22;57519;51.494;-2.626;2023-02-28T06:05:38;3.61;89.32
70154;DHT22;57519;51.494;-2.626;2023-02-28T06:08:04;3.51;89.93
70154;DHT22;57519;51.494;-2.626;2023-02-28T06:10:32;3.46;90.07
70154;DHT22;57519;51.494;-2.626;2023-02-28T06:13:00;3.28;89.88
70154;DHT22;57519;51.494;-2.626;2023-02-28T06:15:26;3.15;90.01
70154;DHT22;57519;51.494;-2.626;2023-02-28T06:17:51;3.00;89.99
70154;DHT22;57519;51.494;-2.626;2023-02-28T06:20:17;2.87;90.30
70154;DHT22;57519;51.494;-2.626;2023-02-28T06:22:42;2.82;90.35
70154;DHT22;57519;51.494;-2.626;2023-02-28T06:25:09;2.67;90.61
70154;DHT22;57519;51.494;-2.626;2023-02-28T06:27:35;2.83;91.85
70154;DHT22;57519;51.494;-2.626;2023-02-28T06:30:01;2.72;91.62
70154;DHT22;57519;51.494;-2.626;2023-02-28T06:32:26;2.67;92.05
70154;DHT22;57519;51.494;-2.626;2023-02-28T06:34:52;2.75;92.43
70154;DHT22;57519;51.494;-2.626;2023-02-28T06:37:18;2.65;92.42
70154;DHT22;57519;51.494;-2.626;2023-02-28T06:39:44;2.48;91.92
70154;DHT22;57519;51.494;-2.626;2023-02-28T06:42:09;2.36;91.87
70154;DHT22;57519;51.494;-2.626;2023-02-28T06:44:35;2.28;92.15
70154;DHT22;57519;51.494;-2.626;2023-02-28T06:47:02;2.32;92.63
70154;DHT22;57519;51.494;-2.626;2023-02-28T06:49:32;2.63;93.75
70154;DHT22;57519;51.494;-2.626;2023-02-28T06:51:58;2.52;93.26
70154;DHT22;57519;51.494;-2.626;2023-02-28T06:54:23;2.44;92.80
70154;DHT22;57519;51.494;-2.626;2023-02-28T06:56:49;2.42;93.08
70154;DHT22;57519;51.494;-2.626;2023-02-28T06:59:16;2.45;93.26
70154;DHT22;57519;51.494;-2.626;2023-02-28T07:01:41;2.44;92.94
70154;DHT22;57519;51.494;-2.626;2023-02-28T07:04:07;2.44;92.63
70154;DHT22;57519;51.494;-2.626;2023-02-28T07:06:32;2.41;92.63
70154;DHT22;57519;51.494;-2.626;2023-02-28T07:08:58;2.42;92.66
70154;DHT22;57519;51.494;-2.626;2023-02-28T07:11:26;2.41;92.67
70154;DHT22;57519;51.494;-2.626;2023-02-28T07:13:53;2.45;92.70
70154;DHT22;57519;51.494;-2.626;2023-02-28T07:16:19;2.52;92.81
70154;DHT22;57519;51.494;-2.626;2023-02-28T07:18:45;2.69;92.98
70154;DHT22;57519;51.494;-2.626;2023-02-28T07:21:10;2.93;93.52
70154;DHT22;57519;51.494;-2.626;2023-02-28T07:23:38;3.15;93.67
70154;DHT22;57519;51.494;-2.626;2023-02-28T07:26:04;3.25;93.49
70154;DHT22;57519;51.494;-2.626;2023-02-28T07:28:30;3.36;93.31
70154;DHT22;57519;51.494;-2.626;2023-02-28T07:30:55;3.38;93.22
70154;DHT22;57519;51.494;-2.626;2023-02-28T07:33:21;3.45;93.09
70154;DHT22;57519;51.494;-2.626;2023-02-28T07:35:46;3.45;92.91
70154;DHT22;57519;51.494;-2.626;2023-02-28T07:38:12;3.54;93.04
70154;DHT22;57519;51.494;-2.626;2023-02-28T07:40:39;3.63;93.11
70154;DHT22;57519;51.494;-2.626;2023-02-28T07:43:04;3.65;92.91
70154;DHT22;57519;51.494;-2.626;2023-02-28T07:45:30;3.69;92.99
70154;DHT22;57519;51.494;-2.626;2023-02-28T07:47:57;3.70;92.96
70154;DHT22;57519;51.494;-2.626;2023-02-28T07:50:22;3.70;92.76
70154;DHT22;57519;51.494;-2.626;2023-02-28T07:52:48;3.80;92.76
70154;DHT22;57519;51.494;-2.626;2023-02-28T07:55:14;3.87;93.19
70154;DHT22;57519;51.494;-2.626;2023-02-28T07:57:40;3.97;93.25
70154;DHT22;57519;51.494;-2.626;2023-02-28T08:00:07;4.04;93.10
70154;DHT22;57519;51.494;-2.626;2023-02-28T08:02:34;4.13;92.86
70154;DHT22;57519;51.494;-2.626;2023-02-28T08:05:00;4.18;92.75
70154;DHT22;57519;51.494;-2.626;2023-02-28T08:07:26;4.27;92.64
70154;DHT22;57519;51.494;-2.626;2023-02-28T08:09:51;4.33;92.46
70154;DHT22;57519;51.494;-2.626;2023-02-28T08:12:16;4.38;92.44
70154;DHT22;57519;51.494;-2.626;2023-02-28T08:14:42;4.41;92.37
70154;DHT22;57519;51.494;-2.626;2023-02-28T08:17:08;4.45;92.24
70154;DHT22;57519;51.494;-2.626;2023-02-28T08:19:34;4.51;92.02
70154;DHT22;57519;51.494;-2.626;2023-02-28T08:21:59;4.55;91.88
70154;DHT22;57519;51.494;-2.626;2023-02-28T08:24:24;4.59;91.79
70154;DHT22;57519;51.494;-2.626;2023-02-28T08:26:50;4.73;91.57
70154;DHT22;57519;51.494;-2.626;2023-02-28T08:29:15;4.68;91.08
70154;DHT22;57519;51.494;-2.626;2023-02-28T08:31:41;4.82;91.08
70154;DHT22;57519;51.494;-2.626;2023-02-28T08:34:11;4.80;90.78
70154;DHT22;57519;51.494;-2.626;2023-02-28T08:36:37;4.90;90.76
70154;DHT22;57519;51.494;-2.626;2023-02-28T08:39:03;5.05;90.66
70154;DHT22;57519;51.494;-2.626;2023-02-28T08:41:29;5.14;90.08
70154;DHT22;57519;51.494;-2.626;2023-02-28T08:43:54;5.19;89.61
70154;DHT22;57519;51.494;-2.626;2023-02-28T08:46:20;5.27;89.73
70154;DHT22;57519;51.494;-2.626;2023-02-28T08:48:46;5.30;89.26
70154;DHT22;57519;51.494;-2.626;2023-02-28T08:51:14;5.35;89.34
70154;DHT22;57519;51.494;-2.626;2023-02-28T08:53:41;5.33;89.10
70154;DHT22;57519;51.494;-2.626;2023-02-28T08:56:09;5.31;89.12
70154;DHT22;57519;51.494;-2.626;2023-02-28T08:58:35;5.37;89.10
70154;DHT22;57519;51.494;-2.626;2023-02-28T09:01:07;5.47;89.05
70154;DHT22;57519;51.494;-2.626;2023-02-28T09:03:33;5.44;88.87
70154;DHT22;57519;51.494;-2.626;2023-02-28T09:06:00;5.54;89.13
70154;DHT22;57519;51.494;-2.626;2023-02-28T09:08:29;5.45;88.89
70154;DHT22;57519;51.494;-2.626;2023-02-28T09:10:58;5.43;88.86
70154;DHT22;57519;51.494;-2.626;2023-02-28T09:13:25;5.48;88.81
70154;DHT22;57519;51.494;-2.626;2023-02-28T09:15:52;5.50;88.82
70154;DHT22;57519;51.494;-2.626;2023-02-28T09:18:18;5.55;88.67
70154;DHT22;57519;51.494;-2.626;2023-02-28T09:20:44;5.54;88.64
70154;DHT22;57519;51.494;-2.626;2023-02-28T09:23:11;5.64;88.49
70154;DHT22;57519;51.494;-2.626;2023-02-28T09:25:37;5.54;88.02
70154;DHT22;57519;51.494;-2.626;2023-02-28T09:28:03;5.69;88.11
70154;DHT22;57519;51.494;-2.626;2023-02-28T09:30:29;5.75;87.52
70154;DHT22;57519;51.494;-2.626;2023-02-28T09:32:55;5.98;87.60
70154;DHT22;57519;51.494;-2.626;2023-02-28T09:35:22;5.96;86.85
70154;DHT22;57519;51.494;-2.626;2023-02-28T09:37:49;5.75;86.53
70154;DHT22;57519;51.494;-2.626;2023-02-28T09:40:15;5.78;86.79
70154;DHT22;57519;51.494;-2.626;2023-02-28T09:42:45;5.85;86.92
70154;DHT22;57519;51.494;-2.626;2023-02-28T09:45:36;5.86;86.72
70154;DHT22;57519;51.494;-2.626;2023-02-28T09:48:12;5.99;86.68
70154;DHT22;57519;51.494;-2.626;2023-02-28T09:50:46;6.07;86.45
70154;DHT22;57519;51.494;-2.626;2023-02-28T09:53:26;6.02;85.77
70154;DHT22;57519;51.494;-2.626;2023-02-28T09:56:03;6.12;86.01
70154;DHT22;57519;51.494;-2.626;2023-02-28T09:58:44;6.23;85.27
70154;DHT22;57519;51.494;-2.626;2023-02-28T10:01:27;6.26;84.98
70154;DHT22;57519;51.494;-2.626;2023-02-28T10:04:03;6.10;84.52
70154;DHT22;57519;51.494;-2.626;2023-02-28T10:06:40;6.16;84.98
70154;DHT22;57519;51.494;-2.626;2023-02-28T10:09:21;6.24;84.65
70154;DHT22;57519;51.494;-2.626;2023-02-28T10:11:51;6.26;83.99
70154;DHT22;57519;51.494;-2.626;2023-02-28T10:14:28;6.20;83.69
70154;DHT22;57519;51.494;-2.626;2023-02-28T10:17:10;6.14;83.99
70154;DHT22;57519;51.494;-2.626;2023-02-28T10:20:05;6.10;83.64
70154;DHT22;57519;51.494;-2.626;2023-02-28T10:25:39;6.29;83.73
70154;DHT22;57519;51.494;-2.626;2023-02-28T10:28:12;6.27;82.83
70154;DHT22;57519;51.494;-2.626;2023-02-28T10:30:42;6.33;82.99
70154;DHT22;57519;51.494;-2.626;2023-02-28T10:33:30;6.47;82.39
70154;DHT22;57519;51.494;-2.626;2023-02-28T10:35:56;6.50;82.41
70154;DHT22;57519;51.494;-2.626;2023-02-28T10:38:34;6.61;82.14
70154;DHT22;57519;51.494;-2.626;2023-02-28T10:43:29;6.81;81.92
70154;DHT22;57519;51.494;-2.626;2023-02-28T10:48:44;6.77;81.55
70154;DHT22;57519;51.494;-2.626;2023-02-28T10:51:12;6.79;81.72
70154;DHT22;57519;51.494;-2.626;2023-02-28T10:53:58;6.74;81.67
70154;DHT22;57519;51.494;-2.626;2023-02-28T10:56:24;6.75;81.57
70154;DHT22;57519;51.494;-2.626;2023-02-28T11:01:25;6.93;81.87
70154;DHT22;57519;51.494;-2.626;2023-02-28T11:03:58;6.92;81.31
70154;DHT22;57519;51.494;-2.626;2023-02-28T11:06:34;7.03;80.56
70154;DHT22;57519;51.494;-2.626;2023-02-28T11:09:06;7.34;80.36
70154;DHT22;57519;51.494;-2.626;2023-02-28T11:11:45;7.31;79.61
70154;DHT22;57519;51.494;-2.626;2023-02-28T11:14:24;7.46;79.40
70154;DHT22;57519;51.494;-2.626;2023-02-28T11:16:51;7.28;79.63
70154;DHT22;57519;51.494;-2.626;2023-02-28T11:19:30;7.19;79.20
70154;DHT22;57519;51.494;-2.626;2023-02-28T11:22:01;7.07;79.80
70154;DHT22;57519;51.494;-2.626;2023-02-28T11:24:30;7.13;79.90
70154;DHT22;57519;51.494;-2.626;2023-02-28T11:26:57;6.92;79.96
70154;DHT22;57519;51.494;-2.626;2023-02-28T11:29:31;7.03;80.58
70154;DHT22;57519;51.494;-2.626;2023-02-28T11:32:21;7.02;80.56
70154;DHT22;57519;51.494;-2.626;2023-02-28T11:37:27;7.03;81.33
70154;DHT22;57519;51.494;-2.626;2023-02-28T11:39:53;6.93;80.63
70154;DHT22;57519;51.494;-2.626;2023-02-28T11:45:34;7.05;80.58
70154;DHT22;57519;51.494;-2.626;2023-02-28T11:50:42;7.23;80.54
70154;DHT22;57519;51.494;-2.626;2023-02-28T12:01:22;7.57;79.25
70154;DHT22;57519;51.494;-2.626;2023-02-28T12:06:50;7.55;79.21
70154;DHT22;57519;51.494;-2.626;2023-02-28T12:10:06;7.60;79.16
70154;DHT22;57519;51.494;-2.626;2023-02-28T12:18:51;7.60;79.94
70154;DHT22;57519;51.494;-2.626;2023-02-28T12:24:04;7.68;79.80
70154;DHT22;57519;51.494;-2.626;2023-02-28T12:26:41;7.73;80.10
70154;DHT22;57519;51.494;-2.626;2023-02-28T12:29:24;7.74;79.76
70154;DHT22;57519;51.494;-2.626;2023-02-28T12:32:09;7.71;80.22
70154;DHT22;57519;51.494;-2.626;2023-02-28T12:34:42;7.61;79.45
70154;DHT22;57519;51.494;-2.626;2023-02-28T12:37:15;7.50;79.50
70154;DHT22;57519;51.494;-2.626;2023-02-28T12:39:49;7.65;80.11
70154;DHT22;57519;51.494;-2.626;2023-02-28T12:42:26;7.64;79.74
70154;DHT22;57519;51.494;-2.626;2023-02-28T12:44:57;7.77;79.42
70154;DHT22;57519;51.494;-2.626;2023-02-28T12:47:24;7.84;79.17
70154;DHT22;57519;51.494;-2.626;2023-02-28T12:50:03;7.70;79.17
70154;DHT22;57519;51.494;-2.626;2023-02-28T12:52:58;7.58;79.70
70154;DHT22;57519;51.494;-2.626;2023-02-28T12:55:33;7.57;79.92
70154;DHT22;57519;51.494;-2.626;2023-02-28T12:58:07;7.60;79.91
70154;DHT22;57519;51.494;-2.626;2023-02-28T13:00:38;7.71;79.47
70154;DHT22;57519;51.494;-2.626;2023-02-28T13:11:24;7.82;77.67
70154;DHT22;57519;51.494;-2.626;2023-02-28T13:13:57;7.84;78.04
70154;DHT22;57519;51.494;-2.626;2023-02-28T13:16:23;7.88;77.72
70154;DHT22;57519;51.494;-2.626;2023-02-28T13:18:48;7.99;78.06
70154;DHT22;57519;51.494;-2.626;2023-02-28T13:21:27;8.09;77.47
70154;DHT22;57519;51.494;-2.626;2023-02-28T13:47:42;7.40;82.10
70154;DHT22;57519;51.494;-2.626;2023-02-28T13:58:27;7.84;81.15
70154;DHT22;57519;51.494;-2.626;2023-02-28T14:06:34;7.82;80.63
70154;DHT22;57519;51.494;-2.626;2023-02-28T14:09:02;7.91;81.10
70154;DHT22;57519;51.494;-2.626;2023-02-28T14:13:54;7.82;80.87
70154;DHT22;57519;51.494;-2.626;2023-02-28T14:16:22;7.85;80.33
70154;DHT22;57519;51.494;-2.626;2023-02-28T14:19:09;7.92;80.45
70154;DHT22;57519;51.494;-2.626;2023-02-28T14:21:39;7.70;80.15
70154;DHT22;57519;51.494;-2.626;2023-02-28T14:37:54;7.53;83.99
70154;DHT22;57519;51.494;-2.626;2023-02-28T14:40:33;7.64;84.79
70154;DHT22;57519;51.494;-2.626;2023-02-28T14:43:04;7.36;83.62
70154;DHT22;57519;51.494;-2.626;2023-02-28T14:45:32;7.30;83.94
70154;DHT22;57519;51.494;-2.626;2023-02-28T14:47:59;7.13;84.21
70154;DHT22;57519;51.494;-2.626;2023-02-28T14:50:36;7.09;84.19
70154;DHT22;57519;51.494;-2.626;2023-02-28T14:53:02;7.06;84.11
70154;DHT22;57519;51.494;-2.626;2023-02-28T14:55:34;7.13;84.32
70154;DHT22;57519;51.494;-2.626;2023-02-28T14:58:02;7.15;84.33
70154;DHT22;57519;51.494;-2.626;2023-02-28T15:00:31;7.17;83.72
70154;DHT22;57519;51.494;-2.626;2023-02-28T15:02:59;7.22;83.22
70154;DHT22;57519;51.494;-2.626;2023-02-28T15:05:33;7.38;82.98
70154;DHT22;57519;51.494;-2.626;2023-02-28T15:08:14;7.53;83.07
70154;DHT22;57519;51.494;-2.626;2023-02-28T15:10:53;7.75;82.49
70154;DHT22;57519;51.494;-2.626;2023-02-28T15:13:20;7.71;82.21
70154;DHT22;57519;51.494;-2.626;2023-02-28T15:15:57;7.61;83.31
70154;DHT22;57519;51.494;-2.626;2023-02-28T15:18:40;7.47;83.73
70154;DHT22;57519;51.494;-2.626;2023-02-28T15:21:11;7.31;85.20
70154;DHT22;57519;51.494;-2.626;2023-02-28T15:23:38;7.24;85.75
70154;DHT22;57519;51.494;-2.626;2023-02-28T15:26:06;7.19;86.09
70154;DHT22;57519;51.494;-2.626;2023-02-28T15:28:31;7.17;85.90
70154;DHT22;57519;51.494;-2.626;2023-02-28T15:31:03;7.07;86.48
70154;DHT22;57519;51.494;-2.626;2023-02-28T15:33:30;6.96;86.70
70154;DHT22;57519;51.494;-2.626;2023-02-28T15:36:26;6.89;85.86
70154;DHT22;57519;51.494;-2.626;2023-02-28T15:38:53;6.89;86.35
70154;DHT22;57519;51.494;-2.626;2023-02-28T15:41:30;6.89;85.35
70154;DHT22;57519;51.494;-2.626;2023-02-28T15:44:17;6.92;85.12
70154;DHT22;57519;51.494;-2.626;2023-02-28T15:46:58;6.99;84.16
70154;DHT22;57519;51.494;-2.626;2023-02-28T15:49:25;7.12;83.45
70154;DHT22;57519;51.494;-2.626;2023-02-28T15:51:53;7.33;82.04
70154;DHT22;57519;51.494;-2.626;2023-02-28T15:54:24;7.57;81.63
70154;DHT22;57519;51.494;-2.626;2023-02-28T15:56:51;7.71;81.00
70154;DHT22;57519;51.494;-2.626;2023-02-28T15:59:28;7.81;81.28
70154;DHT22;57519;51.494;-2.626;2023-02-28T16:02:48;7.86;80.75
70154;DHT22;57519;51.494;-2.626;2023-02-28T16:10:04;7.94;77.70
70154;DHT22;57519;51.494;-2.626;2023-02-28T16:12:32;7.91;77.96
70154;DHT22;57519;51.494;-2.626;2023-02-28T16:15:00;7.84;77.84
70154;DHT22;57519;51.494;-2.626;2023-02-28T16:17:30;7.85;78.29
70154;DHT22;57519;51.494;-2.626;2023-02-28T16:19:58;7.88;77.50
70154;DHT22;57519;51.494;-2.626;2023-02-28T16:22:23;7.86;77.93
70154;DHT22;57519;51.494;-2.626;2023-02-28T16:24:49;7.84;78.10
70154;DHT22;57519;51.494;-2.626;2023-02-28T16:27:21;7.73;78.02
70154;DHT22;57519;51.494;-2.626;2023-02-28T16:29:49;7.68;77.92
70154;DHT22;57519;51.494;-2.626;2023-02-28T16:32:17;7.61;77.59
70154;DHT22;57519;51.494;-2.626;2023-02-28T16:34:43;7.53;78.03
70154;DHT22;57519;51.494;-2.626;2023-02-28T16:37:11;7.60;77.93
70154;DHT22;57519;51.494;-2.626;2023-02-28T16:39:37;7.65;77.89
70154;DHT22;57519;51.494;-2.626;2023-02-28T16:42:02;7.60;77.91
70154;DHT22;57519;51.494;-2.626;2023-02-28T16:44:34;7.64;77.80
70154;DHT22;57519;51.494;-2.626;2023-02-28T16:47:01;7.74;77.58
70154;DHT22;57519;51.494;-2.626;2023-02-28T16:49:27;7.78;76.15
70154;DHT22;57519;51.494;-2.626;2023-02-28T16:51:52;7.77;76.55
70154;DHT22;57519;51.494;-2.626;2023-02-28T16:54:18;7.85;76.74
70154;DHT22;57519;51.494;-2.626;2023-02-28T16:56:45;7.79;76.43
70154;DHT22;57519;51.494;-2.626;2023-02-28T16:59:12;7.68;76.17
70154;DHT22;57519;51.494;-2.626;2023-02-28T17:01:38;7.64;76.37
70154;DHT22;57519;51.494;-2.626;2023-02-28T17:04:04;7.61;76.65
70154;DHT22;57519;51.494;-2.626;2023-02-28T17:06:30;7.58;76.46
70154;DHT22;57519;51.494;-2.626;2023-02-28T17:08:57;7.55;76.68
70154;DHT22;57519;51.494;-2.626;2023-02-28T17:11:25;7.47;77.46
70154;DHT22;57519;51.494;-2.626;2023-02-28T17:13:51;7.46;77.12
70154;DHT22;57519;51.494;-2.626;2023-02-28T17:16:25;7.48;77.32
70154;DHT22;57519;51.494;-2.626;2023-02-28T17:18:54;7.46;77.11
70154;DHT22;57519;51.494;-2.626;2023-02-28T17:21:20;7.42;76.97
70154;DHT22;57519;51.494;-2.626;2023-02-28T17:23:46;7.40;76.67
70154;DHT22;57519;51.494;-2.626;2023-02-28T17:26:16;7.42;76.69
70154;DHT22;57519;51.494;-2.626;2023-02-28T17:28:45;7.44;76.60
70154;DHT22;57519;51.494;-2.626;2023-02-28T17:31:11;7.36;77.14
70154;DHT22;57519;51.494;-2.626;2023-02-28T17:33:37;7.33;77.28
70154;DHT22;57519;51.494;-2.626;2023-02-28T17:36:02;7.31;77.11
70154;DHT22;57519;51.494;-2.626;2023-02-28T17:38:28;7.33;77.12
70154;DHT22;57519;51.494;-2.626;2023-02-28T17:40:53;7.30;77.32
70154;DHT22;57519;51.494;-2.626;2023-02-28T17:43:26;7.33;76.91
70154;DHT22;57519;51.494;-2.626;2023-02-28T17:45:52;7.31;76.64
70154;DHT22;57519;51.494;-2.626;2023-02-28T17:48:17;7.22;77.81
70154;DHT22;57519;51.494;-2.626;2023-02-28T17:50:43;7.17;77.41
70154;DHT22;57519;51.494;-2.626;2023-02-28T17:53:08;7.10;77.94
70154;DHT22;57519;51.494;-2.626;2023-02-28T17:55:33;7.15;77.43
70154;DHT22;57519;51.494;-2.626;2023-02-28T17:58:00;7.09;77.70